| time (UTC) | temp C | wind direction | speed KPH | gust KPH | rain 1hr cm | rain 24hr cm | rain mn cm | humidity % | barometer mb |
| 20260906161611 | 23 | 139 | 8.0 | 16.1 | 0.00 | 0.00 | 0.00 | 74 | 1021.9 |
| 20260906160105 | 22 | 98 | 8.0 | 14.5 | 0.00 | 0.00 | 0.00 | 75 | 1021.8 |
| 20260906154602 | 22 | 46 | 8.0 | 12.9 | 0.00 | 0.00 | 0.00 | 75 | 1021.9 |
| 20260906153115 | 22 | 106 | 6.4 | 19.3 | 0.00 | 0.00 | 0.00 | 77 | 1021.8 |
| 20260906151608 | 22 | 82 | 8.0 | 12.9 | 0.00 | 0.00 | 0.00 | 78 | 1021.9 |
| 20260906150107 | 21 | 127 | 6.4 | 12.9 | 0.00 | 0.00 | 0.00 | 80 | 1021.7 |
| 20260906144621 | 21 | 51 | 6.4 | 16.1 | 0.00 | 0.00 | 0.00 | 81 | 1021.6 |
| 20260906143116 | 21 | 89 | 6.4 | 12.9 | 0.00 | 0.00 | 0.00 | 81 | 1021.6 |
| 20260906141606 | 20 | 86 | 3.2 | 9.7 | 0.00 | 0.00 | 0.00 | 84 | 1021.7 |
| 20260906140119 | 20 | 55 | 1.6 | 4.8 | 0.00 | 0.00 | 0.00 | 84 | 1021.7 |
| 20260906134618 | 18 | 346 | 3.2 | 6.4 | 0.00 | 0.00 | 0.00 | 89 | 1021.8 |
| 20260906133119 | 18 | 27 | 3.2 | 6.4 | 0.00 | 0.00 | 0.00 | 91 | 1021.6 |
| 20260906131603 | 17 | 20 | 3.2 | 8.0 | 0.00 | 0.00 | 0.00 | 91 | 1021.6 |
| 20260906130113 | 17 | 39 | 4.8 | 8.0 | 0.00 | 0.00 | 0.00 | 92 | 1021.4 |
| 20260906124612 | 16 | 37 | 3.2 | 4.8 | 0.00 | 0.00 | 0.00 | 93 | 1021.3 |
| 20260906123104 | 16 | 1 | 3.2 | 4.8 | 0.00 | 0.00 | 0.00 | 93 | 1021.2 |
| 20260906121618 | 15 | 349 | 4.8 | 6.4 | 0.00 | 0.00 | 0.00 | 94 | 1020.9 |
| 20260906120104 | 15 | 1 | 6.4 | 8.0 | 0.00 | 0.00 | 0.00 | 94 | 1020.9 |
| 20260906114619 | 15 | 328 | 3.2 | 4.8 | 0.00 | 0.00 | 0.00 | 94 | 1020.8 |
| 20260906113114 | 15 | 339 | 3.2 | 3.2 | 0.00 | 0.00 | 0.00 | 93 | 1020.3 |
| 20260906111603 | 15 | 354 | 1.6 | 4.8 | 0.00 | 0.00 | 0.00 | 93 | 1020.2 |
| 20260906110106 | 15 | 358 | 4.8 | 6.4 | 0.00 | 0.00 | 0.00 | 93 | 1019.9 |
| 20260906104605 | 15 | 345 | 4.8 | 6.4 | 0.00 | 0.00 | 0.00 | 93 | 1020.0 |
| 20260906103114 | 15 | 328 | 3.2 | 3.2 | 0.00 | 0.00 | 0.00 | 93 | 1020.1 |
| 20260906101605 | 15 | 353 | 4.8 | 6.4 | 0.00 | 0.00 | 0.00 | 92 | 1020.1 |
| 20260906100101 | 15 | 321 | 3.2 | 4.8 | 0.00 | 0.00 | 0.00 | 92 | 1020.2 |
| 20260906094605 | 15 | 307 | 3.2 | 4.8 | 0.00 | 0.00 | 0.00 | 91 | 1020.0 |
| 20260906093108 | 15 | 344 | 4.8 | 4.8 | 0.00 | 0.00 | 0.00 | 92 | 1019.8 |
| 20260906091614 | 15 | 1 | 4.8 | 8.0 | 0.00 | 0.00 | 0.00 | 91 | 1019.9 |
| 20260906090111 | 15 | 334 | 4.8 | 6.4 | 0.00 | 0.00 | 0.00 | 91 | 1019.7 |
| 20260906084607 | 15 | 333 | 4.8 | 6.4 | 0.00 | 0.00 | 0.00 | 91 | 1019.9 |
| 20260906083107 | 15 | 320 | 3.2 | 4.8 | 0.00 | 0.00 | 0.00 | 90 | 1019.8 |
| 20260906081606 | 15 | 336 | 4.8 | 8.0 | 0.00 | 0.00 | 0.00 | 90 | 1019.7 |
| 20260906080111 | 15 | 6 | 6.4 | 8.0 | 0.00 | 0.00 | 0.00 | 90 | 1019.6 |
| 20260906074602 | 16 | 345 | 6.4 | 8.0 | 0.00 | 0.00 | 0.00 | 89 | 1019.8 |
| 20260906073105 | 16 | 335 | 4.8 | 6.4 | 0.00 | 0.00 | 0.00 | 89 | 1019.9 |
| 20260906071616 | 16 | 328 | 4.8 | 6.4 | 0.00 | 0.00 | 0.00 | 90 | 1019.9 |
| 20260906070106 | 15 | 311 | 3.2 | 4.8 | 0.00 | 0.00 | 0.00 | 91 | 1019.8 |
| 20260906064606 | 15 | 343 | 1.6 | 3.2 | 0.00 | 0.00 | 0.00 | 92 | 1019.8 |
| 20260906063105 | 16 | 343 | 3.2 | 3.2 | 0.00 | 0.00 | 0.00 | 92 | 1019.6 |
| 20260906061606 | 16 | 322 | 1.6 | 1.6 | 0.00 | 0.00 | 0.00 | 93 | 1019.7 |
| 20260906060155 | 16 | 322 | 0.0 | 1.6 | 0.00 | 0.00 | 0.00 | 93 | 1019.5 |
| 20260906054616 | 16 | 322 | 1.6 | 3.2 | 0.00 | 0.00 | 0.00 | 93 | 1019.6 |
| 20260906053105 | 16 | 322 | 1.6 | 3.2 | 0.00 | 0.00 | 0.00 | 93 | 1019.4 |
| 20260906051606 | 16 | 351 | 1.6 | 3.2 | 0.00 | 0.00 | 0.00 | 91 | 1019.2 |
| 20260906050116 | 17 | 352 | 3.2 | 3.2 | 0.00 | 0.00 | 0.00 | 90 | 1019.0 |
| 20260906044606 | 17 | 352 | 1.6 | 6.4 | 0.00 | 0.00 | 0.00 | 90 | 1019.1 |
| 20260906043110 | 17 | 18 | 3.2 | 6.4 | 0.00 | 0.00 | 0.00 | 90 | 1019.0 |
| 20260906041611 | 16 | 6 | 1.6 | 3.2 | 0.00 | 0.00 | 0.00 | 92 | 1018.9 |
| 20260906040109 | 16 | 330 | 0.0 | 3.2 | 0.00 | 0.00 | 0.00 | 91 | 1019.0 |
| 20260906034608 | 17 | 346 | 1.6 | 3.2 | 0.00 | 0.00 | 0.00 | 91 | 1019.0 |
| 20260906033111 | 17 | 346 | 1.6 | 1.6 | 0.00 | 0.00 | 0.00 | 89 | 1018.8 |
| 20260906031630 | 18 | 346 | 1.6 | 3.2 | 0.00 | 0.00 | 0.00 | 86 | 1018.7 |
| 20260906030109 | 18 | 55 | 3.2 | 8.0 | 0.00 | 0.00 | 0.00 | 82 | 1018.6 |
| 20260906024607 | 18 | 4 | 4.8 | 9.7 | 0.00 | 0.00 | 0.00 | 84 | 1018.6 |
| 20260906023113 | 18 | 41 | 1.6 | 3.2 | 0.00 | 0.00 | 0.00 | 87 | 1018.5 |
| 20260906021612 | 18 | 359 | 1.6 | 4.8 | 0.00 | 0.00 | 0.00 | 86 | 1018.5 |
| 20260906020106 | 19 | 1 | 1.6 | 4.8 | 0.00 | 0.00 | 0.00 | 85 | 1018.5 |
| 20260906014609 | 19 | 32 | 3.2 | 8.0 | 0.00 | 0.00 | 0.00 | 84 | 1018.4 |
| 20260906013100 | 20 | 42 | 3.2 | 9.7 | 0.00 | 0.00 | 0.00 | 83 | 1018.4 |
| 20260906011615 | 20 | 47 | 4.8 | 8.0 | 0.00 | 0.00 | 0.00 | 83 | 1018.5 |
| 20260906010114 | 20 | 350 | 4.8 | 8.0 | 0.00 | 0.00 | 0.00 | 82 | 1018.3 |
| 20260906004608 | 20 | 350 | 1.6 | 4.8 | 0.00 | 0.00 | 0.00 | 82 | 1018.2 |
| 20260906003101 | 21 | 5 | 4.8 | 6.4 | 0.00 | 0.00 | 0.00 | 79 | 1018.1 |
| 20260906001611 | 21 | 4 | 4.8 | 8.0 | 0.00 | 0.00 | 0.00 | 78 | 1018.2 |
| 20260906000110 | 22 | 338 | 4.8 | 8.0 | 0.00 | 0.00 | 0.00 | 77 | 1018.3 |
| 20260905234602 | 22 | 349 | 6.4 | 11.3 | 0.00 | 0.00 | 0.00 | 75 | 1018.3 |
| 20260905233106 | 23 | 2 | 6.4 | 11.3 | 0.00 | 0.00 | 0.00 | 74 | 1018.5 |
| 20260905231619 | 23 | 359 | 9.7 | 17.7 | 0.00 | 0.00 | 0.00 | 73 | 1018.7 |
| 20260905230113 | 23 | 3 | 8.0 | 16.1 | 0.00 | 0.00 | 0.00 | 74 | 1018.7 |
| 20260905224609 | 23 | 20 | 8.0 | 17.7 | 0.00 | 0.00 | 0.00 | 75 | 1018.3 |
| 20260905223106 | 23 | 15 | 12.9 | 19.3 | 0.00 | 0.00 | 0.00 | 75 | 1017.9 |
| 20260905221631 | 23 | 72 | 6.4 | 12.9 | 0.00 | 0.00 | 0.00 | 77 | 1017.9 |
| 20260905220103 | 23 | 51 | 8.0 | 14.5 | 0.00 | 0.00 | 0.00 | 79 | 1018.0 |
| 20260905214609 | 23 | 21 | 6.4 | 14.5 | 0.00 | 0.00 | 0.00 | 79 | 1017.9 |
| 20260905213106 | 22 | 28 | 6.4 | 9.7 | 0.00 | 0.00 | 0.00 | 81 | 1017.9 |
| 20260905211605 | 22 | 1 | 4.8 | 9.7 | 0.00 | 0.00 | 0.00 | 82 | 1018.1 |
| 20260905210111 | 22 | 321 | 3.2 | 6.4 | 0.00 | 0.00 | 0.00 | 82 | 1018.1 |
| 20260905204612 | 23 | 299 | 3.2 | 6.4 | 0.00 | 0.00 | 0.00 | 81 | 1018.1 |
| 20260905203104 | 23 | 340 | 8.0 | 12.9 | 0.00 | 0.00 | 0.00 | 80 | 1018.1 |
| 20260905201607 | 23 | 21 | 4.8 | 14.5 | 0.00 | 0.00 | 0.00 | 82 | 1018.1 |
| 20260905200131 | 22 | 295 | 11.3 | 17.7 | 0.00 | 0.00 | 0.00 | 84 | 1018.1 |
| 20260905194607 | 22 | 23 | 12.9 | 20.9 | 0.00 | 0.00 | 0.00 | 82 | 1018.1 |
| 20260905193104 | 22 | 6 | 11.3 | 19.3 | 0.00 | 0.00 | 0.00 | 82 | 1018.3 |
| 20260905191603 | 22 | 358 | 16.1 | 19.3 | 0.00 | 0.00 | 0.00 | 82 | 1018.2 |
| 20260905190104 | 22 | 339 | 14.5 | 22.5 | 0.00 | 0.00 | 0.00 | 82 | 1018.1 |
| 20260905184612 | 22 | 336 | 14.5 | 20.9 | 0.00 | 0.00 | 0.00 | 84 | 1018.2 |
| 20260905183107 | 22 | 337 | 12.9 | 19.3 | 0.00 | 0.00 | 0.00 | 84 | 1018.3 |
| 20260905181603 | 22 | 354 | 12.9 | 19.3 | 0.00 | 0.00 | 0.00 | 84 | 1018.2 |
| 20260905180114 | 22 | 347 | 6.4 | 16.1 | 0.00 | 0.00 | 0.00 | 85 | 1018.2 |
| 20260905174602 | 22 | 2 | 12.9 | 19.3 | 0.00 | 0.00 | 0.00 | 85 | 1018.1 |
| 20260905173132 | 22 | 1 | 9.7 | 16.1 | 0.00 | 0.00 | 0.00 | 85 | 1017.9 |
| 20260905171603 | 21 | 16 | 16.1 | 20.9 | 0.00 | 0.00 | 0.00 | 86 | 1018.1 |
| 20260905170119 | 22 | 12 | 6.4 | 16.1 | 0.00 | 0.00 | 0.00 | 85 | 1018.3 |
| 20260905164625 | 21 | 18 | 9.7 | 17.7 | 0.00 | 0.00 | 0.00 | 86 | 1018.6 |
| 20260905163104 | 21 | 17 | 8.0 | 16.1 | 0.00 | 0.00 | 0.00 | 87 | 1018.5 |